Time;durP1;ratioP1;P1;durP2;ratioP2;P2;SDS_P1;SDS_P2;PMS_P1;PMS_P2;Temp;Humidity;BMP_temperature;BMP_pressure;BME280_temperature;BME280_humidity;BME280_pressure;Samples;Min_cycle;Max_cycle;Signal;HPM_P1;HPM_P2
2022/08/05 00:02:08;;;;;;;1.30;1.30;;;;;;;;;;5067179;28;20298;-59
2022/08/05 00:04:34;;;;;;;1.20;1.20;;;;;;;;;;5086669;28;20215;-59
2022/08/05 00:07:00;;;;;;;1.30;1.30;;;;;;;;;;5072332;28;20230;-59
2022/08/05 00:09:26;;;;;;;1.48;1.48;;;;;;;;;;5069964;28;20764;-59
2022/08/05 00:11:52;;;;;;;1.40;1.40;;;;;;;;;;5066169;28;20226;-59
2022/08/05 00:14:18;;;;;;;1.30;1.30;;;;;;;;;;5071132;28;20191;-59
2022/08/05 00:16:44;;;;;;;1.30;1.30;;;;;;;;;;5067314;28;20248;-59
2022/08/05 00:19:10;;;;;;;1.30;1.30;;;;;;;;;;5069616;28;20227;-59
2022/08/05 00:21:36;;;;;;;1.30;1.30;;;;;;;;;;5053705;28;20234;-59
2022/08/05 00:24:02;;;;;;;1.30;1.30;;;;;;;;;;5064853;28;20226;-59
2022/08/05 00:26:28;;;;;;;1.20;1.20;;;;;;;;;;5065270;28;20222;-59
2022/08/05 00:28:54;;;;;;;1.50;1.50;;;;;;;;;;5065667;28;20331;-59
2022/08/05 00:31:20;;;;;;;1.40;1.40;;;;;;;;;;5066841;28;20237;-59
2022/08/05 00:33:46;;;;;;;1.50;1.50;;;;;;;;;;5069432;28;20227;-59
2022/08/05 00:36:13;;;;;;;1.50;1.50;;;;;;;;;;5069058;28;20257;-59
2022/08/05 00:38:39;;;;;;;1.50;1.50;;;;;;;;;;5059773;28;20233;-59
2022/08/05 00:41:06;;;;;;;1.57;1.57;;;;;;;;;;5064272;28;20211;-59
2022/08/05 00:43:32;;;;;;;1.60;1.60;;;;;;;;;;5059243;28;20242;-59
2022/08/05 00:45:58;;;;;;;1.50;1.50;;;;;;;;;;5058842;28;20296;-59
2022/08/05 00:48:24;;;;;;;1.40;1.40;;;;;;;;;;5060762;28;20227;-59
2022/08/05 00:50:51;;;;;;;1.50;1.50;;;;;;;;;;5050318;28;20227;-59
2022/08/05 00:53:19;;;;;;;1.40;1.40;;;;;;;;;;5058963;28;20239;-59
2022/08/05 00:55:45;;;;;;;1.47;1.47;;;;;;;;;;5055283;28;20246;-59
2022/08/05 00:58:11;;;;;;;1.87;1.77;;;;;;;;;;5062549;28;20231;-59
2022/08/05 01:00:40;;;;;;;1.40;1.40;;;;;;;;;;5055701;28;20220;-59
2022/08/05 01:03:06;;;;;;;1.83;1.73;;;;;;;;;;5059792;28;20231;-59
2022/08/05 01:05:32;;;;;;;1.60;1.60;;;;;;;;;;5053739;28;20223;-59
2022/08/05 01:07:58;;;;;;;1.60;1.60;;;;;;;;;;5060328;28;20309;-59
2022/08/05 01:10:27;;;;;;;1.60;1.60;;;;;;;;;;5053046;28;20211;-59
2022/08/05 01:12:55;;;;;;;1.60;1.60;;;;;;;;;;5051009;28;20218;-59
2022/08/05 01:15:22;;;;;;;1.80;1.70;;;;;;;;;;5058833;28;20949;-59
2022/08/05 01:17:53;;;;;;;1.60;1.60;;;;;;;;;;5058253;28;20207;-58
2022/08/05 01:20:24;;;;;;;1.90;1.80;;;;;;;;;;5056851;28;20995;-59
2022/08/05 01:22:59;;;;;;;1.60;1.60;;;;;;;;;;5054906;28;20431;-59
2022/08/05 01:25:37;;;;;;;1.70;1.70;;;;;;;;;;5061603;28;20727;-59
2022/08/05 01:28:16;;;;;;;1.90;1.80;;;;;;;;;;5063551;28;20737;-59
2022/08/05 01:30:52;;;;;;;1.80;1.70;;;;;;;;;;5046676;28;21348;-59
2022/08/05 01:33:18;;;;;;;2.00;1.90;;;;;;;;;;5035568;28;20602;-59
2022/08/05 01:35:44;;;;;;;2.00;1.90;;;;;;;;;;5032019;28;21111;-59
2022/08/05 01:38:10;;;;;;;2.10;2.00;;;;;;;;;;5025833;28;20236;-59
2022/08/05 01:40:36;;;;;;;2.10;2.00;;;;;;;;;;5032719;28;20219;-59
2022/08/05 01:43:02;;;;;;;2.10;2.00;;;;;;;;;;5040341;28;20220;-59
2022/08/05 01:45:29;;;;;;;2.00;1.90;;;;;;;;;;5034926;28;21173;-58
2022/08/05 01:47:55;;;;;;;1.90;1.80;;;;;;;;;;5034338;28;20233;-59
2022/08/05 01:50:28;;;;;;;2.10;2.00;;;;;;;;;;5029860;28;20216;-59
2022/08/05 01:52:55;;;;;;;1.93;1.83;;;;;;;;;;5025608;28;20259;-58
2022/08/05 01:55:22;;;;;;;1.90;1.80;;;;;;;;;;5030117;28;20204;-59
2022/08/05 01:57:48;;;;;;;2.10;2.00;;;;;;;;;;5032836;28;20231;-59
2022/08/05 02:00:14;;;;;;;2.00;1.90;;;;;;;;;;5025339;28;20220;-59
2022/08/05 02:03:00;;;;;;;2.00;1.90;;;;;;;;;;5023610;28;20232;-59
2022/08/05 02:05:29;;;;;;;2.00;1.90;;;;;;;;;;5026182;28;20236;-59
2022/08/05 02:07:56;;;;;;;2.10;2.00;;;;;;;;;;5024230;28;20224;-58
2022/08/05 02:10:22;;;;;;;1.80;1.70;;;;;;;;;;5029002;28;20950;-59
2022/08/05 02:12:56;;;;;;;2.00;1.90;;;;;;;;;;5036201;28;20227;-59
2022/08/05 02:15:26;;;;;;;1.90;1.80;;;;;;;;;;5033354;28;20238;-58
2022/08/05 02:17:52;;;;;;;1.97;1.87;;;;;;;;;;5033344;28;20228;-58
2022/08/05 02:20:19;;;;;;;1.90;1.80;;;;;;;;;;5033325;28;20273;-59
2022/08/05 02:22:46;;;;;;;1.90;1.80;;;;;;;;;;5029385;28;20296;-59
2022/08/05 02:25:13;;;;;;;1.70;1.70;;;;;;;;;;5032768;28;20319;-59
2022/08/05 02:27:40;;;;;;;1.90;1.80;;;;;;;;;;5032124;28;20285;-59
2022/08/05 02:30:06;;;;;;;1.90;1.80;;;;;;;;;;5033439;28;20233;-59
2022/08/05 02:32:32;;;;;;;1.80;1.70;;;;;;;;;;5046281;28;20215;-59
2022/08/05 02:34:59;;;;;;;1.80;1.70;;;;;;;;;;5043888;28;20219;-59
2022/08/05 02:37:25;;;;;;;1.70;1.70;;;;;;;;;;5049898;28;20245;-58
2022/08/05 02:39:51;;;;;;;1.80;1.70;;;;;;;;;;5042564;28;20331;-59
2022/08/05 02:42:16;;;;;;;1.80;1.70;;;;;;;;;;5043752;28;20274;-59
2022/08/05 02:44:42;;;;;;;1.87;1.77;;;;;;;;;;5039209;28;20220;-59
2022/08/05 02:47:08;;;;;;;2.00;1.90;;;;;;;;;;5040233;28;20534;-60
2022/08/05 02:49:35;;;;;;;2.00;1.90;;;;;;;;;;5037759;28;21103;-59
2022/08/05 02:52:01;;;;;;;2.07;1.97;;;;;;;;;;5040390;28;20309;-60
2022/08/05 02:54:27;;;;;;;1.80;1.70;;;;;;;;;;5042542;28;20219;-60
2022/08/05 02:56:53;;;;;;;2.00;1.90;;;;;;;;;;5039543;28;20242;-60
2022/08/05 02:59:19;;;;;;;1.90;1.80;;;;;;;;;;5019832;28;20238;-59
2022/08/05 03:01:45;;;;;;;2.10;2.00;;;;;;;;;;5041863;28;20854;-59
2022/08/05 03:04:12;;;;;;;1.90;1.80;;;;;;;;;;5045472;28;20230;-59
2022/08/05 03:06:38;;;;;;;1.90;1.80;;;;;;;;;;5041657;28;20245;-60
2022/08/05 03:09:04;;;;;;;1.90;1.80;;;;;;;;;;5038820;28;20212;-60
2022/08/05 03:11:30;;;;;;;2.10;2.00;;;;;;;;;;5041606;28;20228;-59
2022/08/05 03:13:56;;;;;;;2.20;2.10;;;;;;;;;;5043523;28;21113;-59
2022/08/05 03:16:22;;;;;;;2.00;1.90;;;;;;;;;;5041509;28;20669;-59
2022/08/05 03:18:48;;;;;;;1.97;1.87;;;;;;;;;;5044308;28;20214;-59
2022/08/05 03:21:14;;;;;;;2.00;1.90;;;;;;;;;;5042484;28;20323;-59
2022/08/05 03:23:41;;;;;;;1.90;1.80;;;;;;;;;;5043879;28;20235;-60
2022/08/05 03:26:07;;;;;;;2.10;2.00;;;;;;;;;;5038455;28;20634;-60
2022/08/05 03:28:32;;;;;;;2.00;1.90;;;;;;;;;;5051704;28;20333;-59
2022/08/05 03:30:59;;;;;;;1.80;1.70;;;;;;;;;;5060996;28;20234;-59
2022/08/05 03:33:25;;;;;;;2.10;2.00;;;;;;;;;;5065322;28;20297;-59
2022/08/05 03:35:51;;;;;;;1.90;1.80;;;;;;;;;;5070123;28;20222;-59
2022/08/05 03:38:17;;;;;;;2.10;2.00;;;;;;;;;;5067355;28;20694;-59
2022/08/05 03:40:44;;;;;;;2.00;1.90;;;;;;;;;;5070659;28;20219;-59
2022/08/05 03:43:10;;;;;;;2.10;2.00;;;;;;;;;;5063315;28;20254;-59
2022/08/05 03:45:36;;;;;;;1.90;1.80;;;;;;;;;;5068333;28;20692;-59
2022/08/05 03:48:02;;;;;;;1.77;1.73;;;;;;;;;;5070002;28;20234;-59
2022/08/05 03:50:28;;;;;;;1.80;1.70;;;;;;;;;;5065346;28;20437;-59
2022/08/05 03:53:13;;;;;;;1.90;1.80;;;;;;;;;;5063889;28;20652;-59
2022/08/05 03:55:44;;;;;;;1.80;1.70;;;;;;;;;;5060749;28;20986;-59
2022/08/05 03:58:10;;;;;;;2.10;2.00;;;;;;;;;;5051110;28;20228;-59
2022/08/05 04:00:37;;;;;;;1.90;1.80;;;;;;;;;;5049810;28;20305;-59
2022/08/05 04:03:03;;;;;;;2.00;1.90;;;;;;;;;;5041751;28;21039;-59
2022/08/05 04:05:29;;;;;;;2.00;1.90;;;;;;;;;;5049849;28;20700;-59
2022/08/05 04:07:55;;;;;;;2.00;1.90;;;;;;;;;;5044162;28;20809;-59
2022/08/05 04:10:21;;;;;;;1.90;1.80;;;;;;;;;;5042508;28;20214;-59
2022/08/05 04:12:47;;;;;;;1.90;1.80;;;;;;;;;;5061983;28;20214;-59
2022/08/05 04:15:13;;;;;;;1.80;1.70;;;;;;;;;;5058270;28;20239;-58
2022/08/05 04:17:39;;;;;;;1.90;1.80;;;;;;;;;;5059967;28;20556;-59
2022/08/05 04:20:05;;;;;;;1.90;1.80;;;;;;;;;;5062354;28;20214;-59
2022/08/05 04:22:31;;;;;;;2.10;2.00;;;;;;;;;;5057251;28;20233;-59
2022/08/05 04:24:57;;;;;;;2.00;1.90;;;;;;;;;;5062048;28;20214;-59
2022/08/05 04:27:23;;;;;;;2.20;2.10;;;;;;;;;;5058137;28;20223;-59
2022/08/05 04:29:49;;;;;;;2.20;2.10;;;;;;;;;;5052980;28;20259;-59
2022/08/05 04:32:15;;;;;;;2.17;2.07;;;;;;;;;;5060393;28;20617;-59
2022/08/05 04:34:41;;;;;;;2.23;2.13;;;;;;;;;;5063050;28;20277;-59
2022/08/05 04:37:07;;;;;;;2.40;2.30;;;;;;;;;;5064725;28;20642;-59
2022/08/05 04:39:33;;;;;;;2.10;2.00;;;;;;;;;;5065700;28;20257;-59
2022/08/05 04:41:59;;;;;;;2.00;1.90;;;;;;;;;;5052428;28;20257;-58
2022/08/05 04:44:25;;;;;;;2.10;2.00;;;;;;;;;;5050665;28;20278;-60
2022/08/05 04:46:51;;;;;;;1.80;1.70;;;;;;;;;;5055374;28;20644;-60
2022/08/05 04:49:17;;;;;;;1.60;1.60;;;;;;;;;;5059415;28;20279;-60
2022/08/05 04:51:43;;;;;;;1.93;1.83;;;;;;;;;;5058562;28;20302;-61
2022/08/05 04:54:09;;;;;;;1.67;1.67;;;;;;;;;;5052018;28;20227;-61
2022/08/05 04:56:35;;;;;;;1.90;1.80;;;;;;;;;;5058310;28;20307;-60
2022/08/05 04:59:01;;;;;;;1.70;1.70;;;;;;;;;;5079653;28;20258;-60
2022/08/05 05:01:27;;;;;;;1.90;1.80;;;;;;;;;;5064984;28;20227;-60
2022/08/05 05:03:52;;;;;;;1.90;1.80;;;;;;;;;;5061498;28;20634;-60
2022/08/05 05:06:18;;;;;;;1.90;1.80;;;;;;;;;;5060087;28;20280;-60
2022/08/05 05:08:44;;;;;;;2.00;1.90;;;;;;;;;;5054657;28;20213;-60
2022/08/05 05:11:10;;;;;;;1.80;1.70;;;;;;;;;;5064129;28;20234;-60
2022/08/05 05:13:36;;;;;;;1.90;1.80;;;;;;;;;;5065171;28;20241;-60
2022/08/05 05:16:02;;;;;;;1.90;1.80;;;;;;;;;;5062742;28;21045;-60
2022/08/05 05:18:28;;;;;;;2.00;1.90;;;;;;;;;;5063290;28;20214;-60
2022/08/05 05:20:54;;;;;;;1.70;1.70;;;;;;;;;;5056564;28;20225;-60
2022/08/05 05:23:20;;;;;;;2.00;1.90;;;;;;;;;;5061878;28;20235;-60
2022/08/05 05:25:46;;;;;;;2.00;1.90;;;;;;;;;;5059048;28;20635;-60
2022/08/05 05:28:12;;;;;;;1.70;1.70;;;;;;;;;;5057255;28;20863;-60
2022/08/05 05:30:38;;;;;;;1.70;1.70;;;;;;;;;;5057730;28;20242;-60
2022/08/05 05:33:04;;;;;;;1.53;1.53;;;;;;;;;;5062618;28;20207;-60
2022/08/05 05:35:31;;;;;;;2.23;2.13;;;;;;;;;;5061175;28;20583;-60
2022/08/05 05:37:59;;;;;;;1.90;1.80;;;;;;;;;;5063768;28;20249;-60
2022/08/05 05:40:25;;;;;;;1.70;1.70;;;;;;;;;;5068865;28;20187;-60
2022/08/05 05:42:51;;;;;;;1.90;1.80;;;;;;;;;;5068298;28;20242;-60
2022/08/05 05:45:17;;;;;;;1.80;1.70;;;;;;;;;;5070598;28;20223;-60
2022/08/05 05:47:43;;;;;;;2.00;1.90;;;;;;;;;;5075629;28;20276;-60
2022/08/05 05:50:09;;;;;;;1.90;1.80;;;;;;;;;;5063777;28;20226;-60
2022/08/05 05:52:35;;;;;;;2.20;2.10;;;;;;;;;;5066377;28;20202;-60
2022/08/05 05:55:01;;;;;;;1.80;1.70;;;;;;;;;;5067703;28;20223;-60
2022/08/05 05:57:27;;;;;;;1.90;1.80;;;;;;;;;;5052399;28;20223;-60
2022/08/05 05:59:53;;;;;;;2.00;1.90;;;;;;;;;;5065150;28;20702;-60
2022/08/05 06:02:19;;;;;;;2.10;2.00;;;;;;;;;;5069435;28;20219;-60
2022/08/05 06:04:45;;;;;;;2.10;2.00;;;;;;;;;;5066892;28;20238;-60
2022/08/05 06:07:11;;;;;;;1.90;1.80;;;;;;;;;;5067575;28;20298;-61
2022/08/05 06:09:37;;;;;;;2.00;1.90;;;;;;;;;;5060417;28;20254;-61
2022/08/05 06:12:03;;;;;;;1.70;1.70;;;;;;;;;;5061256;28;20215;-60
2022/08/05 06:14:29;;;;;;;1.90;1.80;;;;;;;;;;5066768;28;20550;-60
2022/08/05 06:16:55;;;;;;;1.90;1.80;;;;;;;;;;5060204;28;20222;-60
2022/08/05 06:19:21;;;;;;;2.10;2.00;;;;;;;;;;5062425;28;20218;-60
2022/08/05 06:21:47;;;;;;;2.00;1.90;;;;;;;;;;5064064;28;20319;-60
2022/08/05 06:24:13;;;;;;;1.80;1.70;;;;;;;;;;5060211;28;20265;-60
2022/08/05 06:26:40;;;;;;;2.00;1.90;;;;;;;;;;5056753;28;20223;-60
2022/08/05 06:29:06;;;;;;;1.90;1.80;;;;;;;;;;5055515;28;20215;-60
2022/08/05 06:31:32;;;;;;;1.80;1.70;;;;;;;;;;5061788;28;20306;-60
2022/08/05 06:33:58;;;;;;;1.90;1.80;;;;;;;;;;5064876;28;20219;-60
2022/08/05 06:36:23;;;;;;;1.80;1.70;;;;;;;;;;5063460;28;20317;-60
2022/08/05 06:38:53;;;;;;;1.90;1.80;;;;;;;;;;5058173;28;20789;-60
2022/08/05 06:41:19;;;;;;;1.90;1.80;;;;;;;;;;5062929;28;20238;-60
2022/08/05 06:43:45;;;;;;;1.90;1.80;;;;;;;;;;5073121;28;21528;-60
2022/08/05 06:46:11;;;;;;;1.67;1.63;;;;;;;;;;5065471;28;20880;-61
2022/08/05 06:48:37;;;;;;;1.90;1.80;;;;;;;;;;5063257;28;20311;-60
2022/08/05 06:51:03;;;;;;;1.90;1.80;;;;;;;;;;5070692;28;20218;-60
2022/08/05 06:53:29;;;;;;;1.93;1.83;;;;;;;;;;5069980;28;20763;-60
2022/08/05 06:55:58;;;;;;;2.20;2.10;;;;;;;;;;5071051;28;20219;-60
2022/08/05 06:58:24;;;;;;;1.60;1.60;;;;;;;;;;5070187;28;20231;-60
2022/08/05 07:00:50;;;;;;;1.90;1.80;;;;;;;;;;5058100;28;20638;-60
2022/08/05 07:03:16;;;;;;;1.70;1.70;;;;;;;;;;5060874;28;20242;-60
2022/08/05 07:05:42;;;;;;;2.00;1.90;;;;;;;;;;5060572;28;20705;-60
2022/08/05 07:08:08;;;;;;;1.80;1.70;;;;;;;;;;5060709;28;20293;-60
2022/08/05 07:10:34;;;;;;;1.87;1.77;;;;;;;;;;5070247;28;20325;-60
2022/08/05 07:18:30;;;;;;;1.80;1.70;;;;;;;;;;5068826;28;20263;-60
2022/08/05 07:20:55;;;;;;;1.87;1.77;;;;;;;;;;5067296;28;21108;-60
2022/08/05 07:23:21;;;;;;;1.80;1.70;;;;;;;;;;5059312;28;20311;-60
2022/08/05 07:25:47;;;;;;;1.90;1.80;;;;;;;;;;5053740;28;20207;-60
2022/08/05 07:28:13;;;;;;;1.90;1.80;;;;;;;;;;5063353;28;20226;-61
2022/08/05 07:30:39;;;;;;;1.90;1.80;;;;;;;;;;5057694;28;20883;-60
2022/08/05 07:33:06;;;;;;;2.00;1.90;;;;;;;;;;5062407;28;20241;-60
2022/08/05 07:35:32;;;;;;;2.00;1.90;;;;;;;;;;5064291;28;21029;-60
2022/08/05 07:37:58;;;;;;;2.00;1.90;;;;;;;;;;5065416;28;20283;-60
2022/08/05 07:40:24;;;;;;;2.00;1.90;;;;;;;;;;5063037;28;20230;-60
2022/08/05 07:42:50;;;;;;;2.10;2.00;;;;;;;;;;5061875;28;20231;-60
2022/08/05 07:45:16;;;;;;;2.00;1.90;;;;;;;;;;5062037;28;20228;-60
2022/08/05 07:47:42;;;;;;;1.70;1.70;;;;;;;;;;5060471;28;20294;-60
2022/08/05 07:50:08;;;;;;;2.10;2.00;;;;;;;;;;5065572;28;20272;-60
2022/08/05 07:52:41;;;;;;;2.10;2.00;;;;;;;;;;5063034;28;20748;-60
2022/08/05 07:55:08;;;;;;;2.10;2.00;;;;;;;;;;5061599;28;21260;-60
2022/08/05 07:57:34;;;;;;;2.17;2.07;;;;;;;;;;5065439;28;20567;-60
2022/08/05 07:59:59;;;;;;;2.20;2.10;;;;;;;;;;5061491;28;20238;-61
2022/08/05 08:02:26;;;;;;;1.93;1.83;;;;;;;;;;5063587;28;20226;-61
2022/08/05 08:04:52;;;;;;;2.00;1.90;;;;;;;;;;5047011;28;20231;-61
2022/08/05 08:07:18;;;;;;;2.00;1.90;;;;;;;;;;5056986;28;20215;-60
2022/08/05 08:09:44;;;;;;;2.10;2.00;;;;;;;;;;5049656;28;20226;-61
2022/08/05 08:12:13;;;;;;;2.00;1.90;;;;;;;;;;5043966;28;23457;-61
2022/08/05 08:14:40;;;;;;;1.90;1.80;;;;;;;;;;5053463;28;20227;-60
2022/08/05 08:17:09;;;;;;;2.13;2.03;;;;;;;;;;5056300;28;20235;-60
2022/08/05 08:19:35;;;;;;;2.10;2.00;;;;;;;;;;5058328;28;20812;-59
2022/08/05 08:22:01;;;;;;;2.20;2.10;;;;;;;;;;5063855;28;20240;-59
2022/08/05 08:24:27;;;;;;;2.03;1.93;;;;;;;;;;5069265;28;20238;-59
2022/08/05 08:26:53;;;;;;;1.90;1.80;;;;;;;;;;5062471;28;20264;-60
2022/08/05 08:29:19;;;;;;;2.30;2.20;;;;;;;;;;5066008;28;20214;-59
2022/08/05 08:31:45;;;;;;;2.10;2.00;;;;;;;;;;5060580;28;20247;-59
2022/08/05 08:34:13;;;;;;;2.20;2.10;;;;;;;;;;5059219;28;20722;-60
2022/08/05 08:36:39;;;;;;;2.00;1.90;;;;;;;;;;5061584;28;20297;-59
2022/08/05 08:39:05;;;;;;;2.20;2.10;;;;;;;;;;5063670;28;20302;-60
2022/08/05 08:41:31;;;;;;;2.00;1.90;;;;;;;;;;5069877;28;20225;-59
2022/08/05 08:43:57;;;;;;;2.10;2.00;;;;;;;;;;5068704;28;20230;-59
2022/08/05 08:46:23;;;;;;;2.00;1.90;;;;;;;;;;5068057;28;20990;-59
2022/08/05 08:48:50;;;;;;;2.00;1.90;;;;;;;;;;5070290;28;20210;-60
2022/08/05 08:51:16;;;;;;;2.00;1.90;;;;;;;;;;5061322;28;20241;-59
2022/08/05 08:53:42;;;;;;;2.00;1.90;;;;;;;;;;5060406;28;20211;-59
2022/08/05 08:56:08;;;;;;;2.10;2.00;;;;;;;;;;5061017;28;20232;-60
2022/08/05 08:58:34;;;;;;;2.00;1.90;;;;;;;;;;5066233;28;20213;-59
2022/08/05 09:01:00;;;;;;;2.10;2.00;;;;;;;;;;5068139;28;20218;-59
2022/08/05 09:03:26;;;;;;;2.20;2.10;;;;;;;;;;5064908;28;20235;-59
2022/08/05 09:05:52;;;;;;;2.00;1.90;;;;;;;;;;5060196;28;20215;-59
2022/08/05 09:08:18;;;;;;;2.00;1.90;;;;;;;;;;5068812;28;20284;-59
2022/08/05 09:10:44;;;;;;;2.10;2.00;;;;;;;;;;5063608;28;20224;-59
2022/08/05 09:13:14;;;;;;;2.07;1.97;;;;;;;;;;5058883;28;20509;-59
2022/08/05 09:15:39;;;;;;;2.00;1.90;;;;;;;;;;5064830;28;20698;-59
2022/08/05 09:18:09;;;;;;;2.00;1.90;;;;;;;;;;5061715;28;20317;-59
2022/08/05 09:20:35;;;;;;;2.10;2.00;;;;;;;;;;5070970;28;20590;-59
2022/08/05 09:23:10;;;;;;;1.90;1.80;;;;;;;;;;5063400;28;20776;-59
2022/08/05 09:25:37;;;;;;;2.00;1.90;;;;;;;;;;5069258;28;20706;-60
2022/08/05 09:28:16;;;;;;;2.10;2.00;;;;;;;;;;5064447;28;20214;-60
2022/08/05 09:30:53;;;;;;;2.08;1.98;;;;;;;;;;5062403;28;20836;-60
2022/08/05 09:33:19;;;;;;;2.13;2.03;;;;;;;;;;5062155;28;20331;-60
2022/08/05 09:36:01;;;;;;;2.50;2.40;;;;;;;;;;5066267;28;20724;-59
2022/08/05 09:38:27;;;;;;;2.47;2.37;;;;;;;;;;5067605;28;20218;-58
2022/08/05 09:40:53;;;;;;;2.00;1.90;;;;;;;;;;5064346;28;20218;-59
2022/08/05 09:43:31;;;;;;;36.90;35.10;;;;;;;;;;5050124;28;20576;-59
2022/08/05 09:45:57;;;;;;;2.63;2.53;;;;;;;;;;5054803;28;20237;-59
2022/08/05 09:48:24;;;;;;;3.07;2.97;;;;;;;;;;5069053;28;20222;-59
2022/08/05 09:50:50;;;;;;;10.40;9.90;;;;;;;;;;5071769;28;20183;-59
2022/08/05 09:53:16;;;;;;;2.20;2.10;;;;;;;;;;5066601;28;20225;-59
2022/08/05 09:55:42;;;;;;;2.00;1.90;;;;;;;;;;5071780;28;20203;-59
2022/08/05 09:58:12;;;;;;;2.00;1.90;;;;;;;;;;5072488;28;20218;-58
2022/08/05 10:00:38;;;;;;;2.10;2.00;;;;;;;;;;5066257;28;20191;-59
2022/08/05 10:03:10;;;;;;;2.00;1.90;;;;;;;;;;5070054;28;20594;-59
2022/08/05 10:05:37;;;;;;;2.00;1.90;;;;;;;;;;5068774;28;20277;-59
2022/08/05 10:08:06;;;;;;;2.10;2.00;;;;;;;;;;5071462;28;20230;-59
2022/08/05 10:10:36;;;;;;;2.00;1.90;;;;;;;;;;5058247;28;20282;-59
2022/08/05 10:13:02;;;;;;;2.10;2.00;;;;;;;;;;5076592;28;20238;-59
2022/08/05 10:15:29;;;;;;;2.03;1.92;;;;;;;;;;5075998;28;20250;-59
2022/08/05 10:18:08;;;;;;;1.90;1.80;;;;;;;;;;5061406;28;20230;-58
2022/08/05 10:20:36;;;;;;;2.42;2.33;;;;;;;;;;5060038;28;20215;-59
2022/08/05 10:23:02;;;;;;;2.60;2.50;;;;;;;;;;5065918;28;20573;-59
2022/08/05 10:25:27;;;;;;;3.05;2.95;;;;;;;;;;5056780;28;20447;-59
2022/08/05 10:27:53;;;;;;;2.20;2.10;;;;;;;;;;5069824;28;20227;-59
2022/08/05 10:30:20;;;;;;;2.17;2.08;;;;;;;;;;5064952;28;20220;-59
2022/08/05 10:32:46;;;;;;;2.40;2.30;;;;;;;;;;5069112;28;20216;-59
2022/08/05 10:35:12;;;;;;;2.30;2.20;;;;;;;;;;5057803;28;20214;-59
2022/08/05 10:37:38;;;;;;;2.17;2.08;;;;;;;;;;5063682;28;20215;-59
2022/08/05 10:40:05;;;;;;;1.85;1.75;;;;;;;;;;5047580;28;21650;-59
2022/08/05 10:42:35;;;;;;;2.45;2.35;;;;;;;;;;5063450;28;20214;-59
2022/08/05 10:45:01;;;;;;;2.00;1.90;;;;;;;;;;5045213;28;20230;-59
2022/08/05 10:47:35;;;;;;;2.00;1.90;;;;;;;;;;5049061;28;20287;-59
2022/08/05 10:50:05;;;;;;;1.10;1.10;;;;;;;;;;5067360;28;20199;-59
2022/08/05 10:52:39;;;;;;;1.10;1.10;;;;;;;;;;5048204;28;20335;-59
2022/08/05 10:55:05;;;;;;;1.50;1.50;;;;;;;;;;5062194;28;20191;-59
2022/08/05 10:57:31;;;;;;;1.50;1.50;;;;;;;;;;5066816;28;20215;-58
2022/08/05 11:00:11;;;;;;;1.50;1.50;;;;;;;;;;5056129;28;20205;-59
2022/08/05 11:02:37;;;;;;;1.98;1.88;;;;;;;;;;5060505;28;20219;-59
2022/08/05 11:05:04;;;;;;;1.58;1.58;;;;;;;;;;5061666;28;20227;-58
2022/08/05 11:07:30;;;;;;;1.75;1.67;;;;;;;;;;5065894;28;20279;-58
2022/08/05 11:09:56;;;;;;;1.45;1.45;;;;;;;;;;5052427;28;20219;-58
2022/08/05 11:12:40;;;;;;;1.58;1.58;;;;;;;;;;5065321;28;20217;-58
2022/08/05 11:15:07;;;;;;;1.63;1.63;;;;;;;;;;5057079;28;20233;-58
2022/08/05 11:17:36;;;;;;;1.60;1.60;;;;;;;;;;5061552;28;20215;-59
2022/08/05 11:20:02;;;;;;;2.10;2.00;;;;;;;;;;5052747;28;20246;-58
2022/08/05 11:22:38;;;;;;;1.95;1.85;;;;;;;;;;5058772;28;20326;-58
2022/08/05 11:25:23;;;;;;;1.90;1.80;;;;;;;;;;5049852;28;20755;-58
2022/08/05 11:27:49;;;;;;;1.95;1.85;;;;;;;;;;5063643;28;20805;-58
2022/08/05 11:30:15;;;;;;;1.90;1.80;;;;;;;;;;5057840;28;20242;-58
2022/08/05 11:32:40;;;;;;;2.10;2.00;;;;;;;;;;5058284;28;20212;-58
2022/08/05 11:35:06;;;;;;;1.90;1.80;;;;;;;;;;5059345;28;20211;-58
2022/08/05 11:37:42;;;;;;;1.90;1.80;;;;;;;;;;5055135;28;20223;-59
2022/08/05 11:40:08;;;;;;;1.60;1.60;;;;;;;;;;5054564;28;20225;-58
2022/08/05 11:42:34;;;;;;;1.50;1.50;;;;;;;;;;5062054;28;20852;-58
2022/08/05 11:45:02;;;;;;;1.73;1.70;;;;;;;;;;5052383;28;20230;-59
2022/08/05 11:47:28;;;;;;;1.80;1.70;;;;;;;;;;5066621;28;20192;-59
2022/08/05 11:49:57;;;;;;;1.50;1.50;;;;;;;;;;5059208;28;20229;-58
2022/08/05 11:52:24;;;;;;;1.40;1.40;;;;;;;;;;5060557;28;20735;-59
2022/08/05 11:54:50;;;;;;;1.50;1.50;;;;;;;;;;5066141;28;20676;-59
2022/08/05 11:57:16;;;;;;;1.50;1.50;;;;;;;;;;5059884;28;20222;-59
2022/08/05 11:59:42;;;;;;;1.60;1.60;;;;;;;;;;5069949;28;20227;-59
2022/08/05 12:02:08;;;;;;;1.55;1.55;;;;;;;;;;5065238;28;20187;-59
2022/08/05 12:04:37;;;;;;;1.83;1.73;;;;;;;;;;5065198;28;20291;-59
2022/08/05 12:07:03;;;;;;;1.30;1.30;;;;;;;;;;5067185;28;20191;-59
2022/08/05 12:09:29;;;;;;;1.00;1.00;;;;;;;;;;5041347;28;20219;-59
2022/08/05 12:11:55;;;;;;;1.50;1.50;;;;;;;;;;5063809;28;20238;-59
2022/08/05 12:14:22;;;;;;;1.80;1.70;;;;;;;;;;5058592;28;20399;-59
2022/08/05 12:16:48;;;;;;;1.60;1.60;;;;;;;;;;5065353;28;20225;-59
2022/08/05 12:19:15;;;;;;;1.40;1.40;;;;;;;;;;5057655;28;20627;-59
2022/08/05 12:21:45;;;;;;;1.00;1.00;;;;;;;;;;5063606;28;20618;-59
2022/08/05 12:24:16;;;;;;;1.00;1.00;;;;;;;;;;5067935;28;20269;-59
2022/08/05 12:26:48;;;;;;;1.50;1.50;;;;;;;;;;5068081;28;20273;-59
2022/08/05 12:29:21;;;;;;;1.55;1.55;;;;;;;;;;5065186;28;20248;-59
2022/08/05 12:31:49;;;;;;;1.58;1.58;;;;;;;;;;5058293;28;20241;-59
2022/08/05 12:34:15;;;;;;;1.67;1.67;;;;;;;;;;5069120;28;20195;-59
2022/08/05 12:36:41;;;;;;;1.80;1.70;;;;;;;;;;5065062;28;20307;-59
2022/08/05 12:39:07;;;;;;;1.95;1.85;;;;;;;;;;5065036;28;20215;-59
2022/08/05 12:41:34;;;;;;;1.90;1.80;;;;;;;;;;5062361;28;20223;-59
2022/08/05 12:44:06;;;;;;;1.60;1.60;;;;;;;;;;5061388;28;20229;-62
2022/08/05 12:46:33;;;;;;;1.80;1.70;;;;;;;;;;5052498;28;20227;-61
2022/08/05 12:49:13;;;;;;;1.90;1.80;;;;;;;;;;5053480;28;20274;-61
2022/08/05 12:51:48;;;;;;;2.00;1.90;;;;;;;;;;5049841;28;20715;-61
2022/08/05 12:54:18;;;;;;;1.77;1.70;;;;;;;;;;5044145;28;20885;-62
2022/08/05 12:56:46;;;;;;;2.08;1.98;;;;;;;;;;5046945;28;20225;-61
2022/08/05 12:59:16;;;;;;;2.20;2.10;;;;;;;;;;5053274;28;20282;-61
2022/08/05 13:01:43;;;;;;;1.90;1.80;;;;;;;;;;5046670;28;20202;-61
2022/08/05 13:04:09;;;;;;;2.10;2.00;;;;;;;;;;5044381;28;20638;-61
2022/08/05 13:06:38;;;;;;;2.00;1.90;;;;;;;;;;5054662;28;20223;-60
2022/08/05 13:09:11;;;;;;;2.00;1.90;;;;;;;;;;5044785;28;20242;-63
2022/08/05 13:11:41;;;;;;;2.08;1.98;;;;;;;;;;5036602;28;20194;-61
2022/08/05 13:14:20;;;;;;;1.90;1.80;;;;;;;;;;5059587;28;20317;-60
2022/08/05 13:16:49;;;;;;;1.83;1.75;;;;;;;;;;5043324;28;20233;-60
2022/08/05 13:19:15;;;;;;;1.90;1.80;;;;;;;;;;5054303;28;20230;-62
2022/08/05 13:21:41;;;;;;;2.03;1.92;;;;;;;;;;5048860;28;21091;-61
2022/08/05 13:24:07;;;;;;;2.10;2.00;;;;;;;;;;5053810;28;21243;-63
2022/08/05 13:26:34;;;;;;;1.98;1.88;;;;;;;;;;5061607;28;20215;-63
2022/08/05 13:29:00;;;;;;;2.00;1.90;;;;;;;;;;5050954;28;20805;-61
2022/08/05 13:31:26;;;;;;;1.90;1.80;;;;;;;;;;5045466;28;20284;-60
2022/08/05 13:33:52;;;;;;;1.90;1.80;;;;;;;;;;5052218;28;20506;-61
2022/08/05 13:36:18;;;;;;;1.80;1.70;;;;;;;;;;5053897;28;20218;-61
2022/08/05 13:38:44;;;;;;;1.80;1.70;;;;;;;;;;5068443;28;20605;-61
2022/08/05 13:41:10;;;;;;;1.90;1.80;;;;;;;;;;5059804;28;20272;-60
2022/08/05 13:43:36;;;;;;;2.00;1.90;;;;;;;;;;5054504;28;20228;-61
2022/08/05 13:46:02;;;;;;;2.03;1.92;;;;;;;;;;5054548;28;20591;-59
2022/08/05 13:48:28;;;;;;;1.90;1.80;;;;;;;;;;5059883;28;20500;-57
2022/08/05 13:50:54;;;;;;;2.05;1.95;;;;;;;;;;5065244;28;20187;-57
2022/08/05 13:53:20;;;;;;;2.10;2.00;;;;;;;;;;5065210;28;20199;-57
2022/08/05 13:55:46;;;;;;;2.00;1.90;;;;;;;;;;5058875;28;20245;-59
2022/08/05 13:58:12;;;;;;;2.20;2.10;;;;;;;;;;5066326;28;20219;-56
2022/08/05 14:00:37;;;;;;;2.10;2.00;;;;;;;;;;5039843;28;20822;-57
2022/08/05 14:03:03;;;;;;;2.03;1.92;;;;;;;;;;5057747;28;20218;-56
2022/08/05 14:05:29;;;;;;;1.90;1.80;;;;;;;;;;5060348;28;20761;-57
2022/08/05 14:07:55;;;;;;;1.90;1.80;;;;;;;;;;5069805;28;20179;-57
2022/08/05 14:10:22;;;;;;;2.00;1.90;;;;;;;;;;5066449;28;20272;-57
2022/08/05 14:12:47;;;;;;;2.00;1.90;;;;;;;;;;5063602;28;20215;-57
2022/08/05 14:15:13;;;;;;;2.08;1.98;;;;;;;;;;5070591;28;20211;-57
2022/08/05 14:17:39;;;;;;;1.90;1.80;;;;;;;;;;5064396;28;20303;-57
2022/08/05 14:20:06;;;;;;;2.00;1.90;;;;;;;;;;5070002;28;20679;-56
2022/08/05 14:22:32;;;;;;;1.88;1.77;;;;;;;;;;5063955;28;20696;-57
2022/08/05 14:24:58;;;;;;;1.90;1.80;;;;;;;;;;5064605;28;20289;-56
2022/08/05 14:27:24;;;;;;;2.20;2.10;;;;;;;;;;5062136;28;20244;-57
2022/08/05 14:29:50;;;;;;;2.00;1.90;;;;;;;;;;5064613;28;20239;-57
2022/08/05 14:32:16;;;;;;;2.20;2.10;;;;;;;;;;5059981;28;20218;-57
2022/08/05 14:34:42;;;;;;;2.17;2.08;;;;;;;;;;5063861;28;20669;-57
2022/08/05 14:37:08;;;;;;;2.00;1.90;;;;;;;;;;5072088;28;20303;-57
2022/08/05 14:39:34;;;;;;;1.50;1.50;;;;;;;;;;5069654;28;20223;-56
2022/08/05 14:42:00;;;;;;;1.60;1.60;;;;;;;;;;5062295;28;20214;-57
2022/08/05 14:44:26;;;;;;;1.42;1.42;;;;;;;;;;5060125;28;20227;-59
2022/08/05 14:46:52;;;;;;;1.50;1.50;;;;;;;;;;5064566;28;20269;-57
2022/08/05 14:49:18;;;;;;;1.65;1.65;;;;;;;;;;5062549;28;20218;-57